Time;durP1;ratioP1;P1;durP2;ratioP2;P2;SDS_P1;SDS_P2;PMS_P1;PMS_P2;Temp;Humidity;BMP_temperature;BMP_pressure;BME280_temperature;BME280_humidity;BME280_pressure;Samples;Min_cycle;Max_cycle;Signal;HPM_P1;HPM_P2
2021/11/28 00:01:48;;;;;;;13.82;6.30;;;;;;;;;;5029860;28;20477;-63
2021/11/28 00:04:33;;;;;;;11.77;6.40;;;;;;;;;;5029175;28;20025;-65
2021/11/28 00:07:27;;;;;;;10.00;5.60;;;;;;;;;;5042961;28;20460;-64
2021/11/28 00:10:39;;;;;;;12.55;6.13;;;;;;;;;;5003729;28;20030;-61
2021/11/28 00:16:15;;;;;;;10.93;5.88;;;;;;;;;;5029975;28;20612;-63
2021/11/28 00:19:01;;;;;;;10.75;6.10;;;;;;;;;;5028685;28;20048;-63
2021/11/28 00:21:46;;;;;;;10.75;6.90;;;;;;;;;;5025671;28;20556;-63
2021/11/28 00:24:32;;;;;;;10.75;6.30;;;;;;;;;;5025487;28;20028;-66
2021/11/28 00:27:17;;;;;;;9.88;5.70;;;;;;;;;;5010348;28;20026;-63
2021/11/28 00:30:06;;;;;;;11.35;5.53;;;;;;;;;;5027747;28;20034;-62
2021/11/28 00:32:53;;;;;;;8.68;5.38;;;;;;;;;;5029875;28;20108;-63
2021/11/28 00:35:38;;;;;;;8.45;5.18;;;;;;;;;;5023781;28;20033;-64
2021/11/28 00:38:23;;;;;;;8.05;5.03;;;;;;;;;;5042261;28;20037;-70
2021/11/28 00:41:09;;;;;;;7.50;5.05;;;;;;;;;;5029103;28;20025;-65
2021/11/28 00:43:54;;;;;;;8.15;5.13;;;;;;;;;;5021359;28;20041;-63
2021/11/28 00:46:39;;;;;;;8.80;5.15;;;;;;;;;;5015933;28;20029;-63
2021/11/28 00:49:27;;;;;;;9.13;4.82;;;;;;;;;;5028497;28;20099;-62
2021/11/28 00:52:12;;;;;;;9.65;4.32;;;;;;;;;;5029442;28;20029;-65
2021/11/28 00:54:57;;;;;;;10.20;5.40;;;;;;;;;;5014706;28;20033;-61
2021/11/28 00:57:43;;;;;;;8.65;4.28;;;;;;;;;;5029394;28;20056;-69
2021/11/28 01:00:28;;;;;;;9.27;4.90;;;;;;;;;;5028774;28;20049;-69
2021/11/28 01:03:13;;;;;;;9.25;4.72;;;;;;;;;;5028493;28;20166;-70
2021/11/28 01:05:58;;;;;;;9.50;4.75;;;;;;;;;;5013999;28;20480;-70
2021/11/28 01:08:44;;;;;;;9.30;4.93;;;;;;;;;;5028702;28;20029;-70
2021/11/28 01:11:30;;;;;;;5.68;3.50;;;;;;;;;;5027964;28;20116;-69
2021/11/28 01:14:15;;;;;;;9.98;4.35;;;;;;;;;;5032775;28;20032;-64
2021/11/28 01:17:01;;;;;;;7.28;4.13;;;;;;;;;;5028222;28;20065;-62
2021/11/28 01:19:46;;;;;;;8.65;3.95;;;;;;;;;;5027833;28;20079;-65
2021/11/28 01:22:31;;;;;;;6.55;3.22;;;;;;;;;;5027623;28;20429;-63
2021/11/28 01:25:16;;;;;;;6.43;3.47;;;;;;;;;;5024952;28;20025;-61
2021/11/28 01:28:02;;;;;;;7.30;3.47;;;;;;;;;;5028994;28;20025;-61
2021/11/28 01:30:47;;;;;;;7.95;3.95;;;;;;;;;;5024389;28;20109;-61
2021/11/28 01:33:33;;;;;;;8.43;3.55;;;;;;;;;;5015249;28;20029;-68
2021/11/28 01:36:18;;;;;;;6.38;2.90;;;;;;;;;;5014194;28;20021;-67
2021/11/28 01:39:04;;;;;;;7.05;3.63;;;;;;;;;;5027707;28;20116;-66
2021/11/28 01:41:50;;;;;;;4.65;2.58;;;;;;;;;;5027290;28;20041;-64
2021/11/28 01:44:35;;;;;;;7.95;3.90;;;;;;;;;;5009083;28;20432;-64
2021/11/28 01:47:20;;;;;;;7.57;3.42;;;;;;;;;;5009110;28;20022;-64
2021/11/28 01:50:06;;;;;;;7.60;3.10;;;;;;;;;;5008758;28;20046;-63
2021/11/28 01:52:51;;;;;;;7.22;3.33;;;;;;;;;;5027501;28;20030;-66
2021/11/28 01:55:37;;;;;;;5.75;3.55;;;;;;;;;;5032571;28;20121;-64
2021/11/28 01:58:22;;;;;;;9.68;4.25;;;;;;;;;;5031315;28;20048;-64
2021/11/28 02:01:13;;;;;;;5.05;3.30;;;;;;;;;;5032721;28;20113;-63
2021/11/28 02:03:59;;;;;;;8.13;3.33;;;;;;;;;;5030354;28;20029;-68
2021/11/28 02:06:45;;;;;;;7.07;3.55;;;;;;;;;;5045520;28;20028;-62
2021/11/28 02:09:31;;;;;;;5.53;3.20;;;;;;;;;;5032518;28;20030;-72
2021/11/28 02:12:16;;;;;;;6.35;3.33;;;;;;;;;;5017784;28;20072;-65
2021/11/28 02:15:02;;;;;;;6.13;3.40;;;;;;;;;;5025214;28;20099;-64
2021/11/28 02:17:49;;;;;;;10.02;3.22;;;;;;;;;;5017798;28;20025;-63
2021/11/28 02:20:34;;;;;;;8.25;3.47;;;;;;;;;;5031532;28;20032;-64
2021/11/28 02:23:20;;;;;;;8.63;3.58;;;;;;;;;;5027281;28;20125;-63
2021/11/28 02:26:07;;;;;;;8.10;3.42;;;;;;;;;;5031519;28;20032;-63
2021/11/28 02:28:52;;;;;;;7.38;3.30;;;;;;;;;;5031069;28;20128;-63
2021/11/28 02:31:37;;;;;;;4.07;3.08;;;;;;;;;;5031995;28;20021;-63
2021/11/28 02:34:23;;;;;;;4.70;2.78;;;;;;;;;;5030948;28;20072;-63
2021/11/28 02:37:08;;;;;;;7.13;3.13;;;;;;;;;;5031401;28;20409;-64
2021/11/28 02:39:53;;;;;;;7.05;3.20;;;;;;;;;;5016698;28;20457;-63
2021/11/28 02:42:39;;;;;;;10.00;2.88;;;;;;;;;;5044747;28;20032;-64
2021/11/28 02:45:25;;;;;;;6.05;3.08;;;;;;;;;;5017272;28;20030;-62
2021/11/28 02:48:12;;;;;;;8.63;3.28;;;;;;;;;;5031364;28;20041;-72
2021/11/28 02:50:58;;;;;;;5.97;3.00;;;;;;;;;;5030866;28;20512;-69
2021/11/28 02:53:43;;;;;;;5.97;3.40;;;;;;;;;;5002550;28;20029;-69
2021/11/28 02:56:28;;;;;;;7.68;3.17;;;;;;;;;;5031113;28;20072;-70
2021/11/28 02:59:14;;;;;;;5.63;2.83;;;;;;;;;;5030287;28;20052;-72
2021/11/28 03:02:00;;;;;;;6.55;2.97;;;;;;;;;;5016404;28;20110;-70
2021/11/28 03:04:45;;;;;;;10.75;3.20;;;;;;;;;;5015291;28;20075;-69
2021/11/28 03:07:30;;;;;;;8.82;3.13;;;;;;;;;;5044746;28;20040;-69
2021/11/28 03:10:29;;;;;;;4.78;2.97;;;;;;;;;;5028086;28;20492;-68
2021/11/28 03:13:25;;;;;;;6.95;3.13;;;;;;;;;;5010812;28;20524;-70
2021/11/28 03:16:12;;;;;;;5.95;2.80;;;;;;;;;;5025887;28;20065;-70
2021/11/28 03:18:57;;;;;;;17.63;3.58;;;;;;;;;;5013442;28;20091;-69
2021/11/28 03:21:43;;;;;;;6.88;3.70;;;;;;;;;;5028559;28;20124;-64
2021/11/28 03:24:28;;;;;;;6.13;3.30;;;;;;;;;;5030941;28;20022;-63
2021/11/28 03:27:13;;;;;;;4.55;2.22;;;;;;;;;;5010848;28;20416;-68
2021/11/28 03:29:58;;;;;;;7.22;2.92;;;;;;;;;;5019594;28;20036;-69
2021/11/28 03:32:44;;;;;;;4.68;2.67;;;;;;;;;;5030792;28;20018;-70
2021/11/28 03:35:29;;;;;;;5.28;2.95;;;;;;;;;;5029889;28;20320;-68
2021/11/28 03:38:15;;;;;;;5.90;2.70;;;;;;;;;;5030761;28;20049;-69
2021/11/28 03:41:00;;;;;;;6.78;3.35;;;;;;;;;;5030567;28;20413;-63
2021/11/28 03:43:45;;;;;;;5.30;3.00;;;;;;;;;;5010876;28;20084;-69
2021/11/28 03:46:31;;;;;;;6.43;3.15;;;;;;;;;;5017990;28;20472;-67
2021/11/28 03:49:16;;;;;;;9.13;2.65;;;;;;;;;;5043993;28;20053;-68
2021/11/28 03:52:03;;;;;;;7.13;3.03;;;;;;;;;;5042792;28;20029;-69
2021/11/28 03:54:48;;;;;;;6.47;3.42;;;;;;;;;;5030072;28;20053;-70
2021/11/28 03:57:34;;;;;;;8.18;2.88;;;;;;;;;;5029063;28;20034;-70
2021/11/28 04:00:19;;;;;;;5.35;2.55;;;;;;;;;;5030248;28;20083;-71
2021/11/28 04:03:05;;;;;;;4.53;2.38;;;;;;;;;;5028342;28;20477;-64
2021/11/28 04:05:50;;;;;;;7.50;2.90;;;;;;;;;;5026186;28;20052;-63
2021/11/28 04:08:36;;;;;;;5.47;2.58;;;;;;;;;;5014047;28;20117;-66
2021/11/28 04:11:21;;;;;;;7.85;3.58;;;;;;;;;;5010040;28;20481;-63
2021/11/28 04:14:06;;;;;;;5.68;2.97;;;;;;;;;;5017678;28;20067;-64
2021/11/28 04:16:51;;;;;;;7.43;3.10;;;;;;;;;;5029010;28;20021;-70
2021/11/28 04:19:37;;;;;;;5.82;3.03;;;;;;;;;;5029705;28;20449;-69
2021/11/28 04:22:22;;;;;;;8.02;2.83;;;;;;;;;;5025189;28;20033;-66
2021/11/28 04:25:09;;;;;;;8.70;3.20;;;;;;;;;;5015996;28;20021;-63
2021/11/28 04:27:54;;;;;;;6.75;3.33;;;;;;;;;;5027188;28;20108;-63
2021/11/28 04:30:39;;;;;;;7.85;2.72;;;;;;;;;;5029812;28;20017;-62
2021/11/28 04:33:25;;;;;;;5.70;2.90;;;;;;;;;;5028689;28;20044;-61
2021/11/28 04:36:10;;;;;;;6.15;2.95;;;;;;;;;;5029747;28;20479;-68
2021/11/28 04:38:55;;;;;;;9.63;3.05;;;;;;;;;;5017925;28;20045;-71
2021/11/28 04:41:40;;;;;;;5.90;2.75;;;;;;;;;;5016809;28;20032;-69
2021/11/28 04:44:26;;;;;;;3.67;2.38;;;;;;;;;;5028103;28;20172;-69
2021/11/28 04:47:14;;;;;;;7.28;2.63;;;;;;;;;;5029271;28;20021;-69
2021/11/28 04:49:59;;;;;;;8.15;3.00;;;;;;;;;;5014333;28;20479;-71
2021/11/28 04:52:45;;;;;;;8.48;2.85;;;;;;;;;;5029297;28;20102;-69
2021/11/28 04:55:30;;;;;;;6.43;2.95;;;;;;;;;;5029022;28;20033;-63
2021/11/28 04:58:15;;;;;;;8.07;2.97;;;;;;;;;;5028703;28;20033;-64
2021/11/28 05:01:01;;;;;;;6.03;2.50;;;;;;;;;;5025108;28;20040;-65
2021/11/28 05:03:46;;;;;;;5.55;2.28;;;;;;;;;;5023954;28;20029;-64
2021/11/28 05:06:31;;;;;;;5.50;2.35;;;;;;;;;;5028687;28;20412;-64
2021/11/28 05:09:16;;;;;;;4.72;2.38;;;;;;;;;;5028132;28;20023;-63
2021/11/28 05:12:02;;;;;;;5.38;2.10;;;;;;;;;;5028813;28;20029;-63
2021/11/28 05:14:47;;;;;;;4.72;2.55;;;;;;;;;;5024061;28;20033;-71
2021/11/28 05:17:32;;;;;;;9.93;2.38;;;;;;;;;;5028617;28;20072;-70
2021/11/28 05:20:18;;;;;;;7.15;2.40;;;;;;;;;;5027889;28;20044;-70
2021/11/28 05:23:03;;;;;;;6.57;2.67;;;;;;;;;;5013860;28;20068;-70
2021/11/28 05:25:48;;;;;;;6.60;2.80;;;;;;;;;;5037028;28;20462;-71
2021/11/28 05:28:34;;;;;;;5.50;2.20;;;;;;;;;;5028440;28;20032;-71
2021/11/28 05:31:19;;;;;;;5.60;2.40;;;;;;;;;;5027699;28;20033;-63
2021/11/28 05:34:04;;;;;;;7.60;3.00;;;;;;;;;;5028729;28;20029;-70
2021/11/28 05:36:49;;;;;;;7.32;2.55;;;;;;;;;;5027581;28;20029;-70
2021/11/28 05:39:35;;;;;;;4.72;2.53;;;;;;;;;;5014233;28;20051;-70
2021/11/28 05:42:20;;;;;;;8.85;2.60;;;;;;;;;;5013203;28;20041;-70
2021/11/28 05:45:06;;;;;;;4.95;2.38;;;;;;;;;;5008444;28;20030;-71
2021/11/28 05:47:51;;;;;;;5.13;2.67;;;;;;;;;;5028302;28;20045;-71
2021/11/28 05:50:37;;;;;;;4.65;1.90;;;;;;;;;;5026814;28;20704;-69
2021/11/28 05:53:22;;;;;;;6.15;2.78;;;;;;;;;;5028424;28;20040;-70
2021/11/28 05:56:08;;;;;;;5.68;2.58;;;;;;;;;;5027555;28;20025;-70
2021/11/28 05:58:53;;;;;;;4.47;2.13;;;;;;;;;;5027879;28;20084;-70
2021/11/28 06:01:38;;;;;;;4.30;2.30;;;;;;;;;;5014899;28;20029;-70
2021/11/28 06:04:24;;;;;;;5.05;2.47;;;;;;;;;;5022273;28;20141;-72
2021/11/28 06:07:09;;;;;;;7.32;2.75;;;;;;;;;;5017791;28;20041;-67
2021/11/28 06:09:54;;;;;;;5.10;2.95;;;;;;;;;;5028016;28;20022;-67
2021/11/28 06:12:39;;;;;;;6.93;2.80;;;;;;;;;;5026968;28;20108;-69
2021/11/28 06:15:25;;;;;;;6.10;2.47;;;;;;;;;;5027741;28;20037;-69
2021/11/28 06:18:10;;;;;;;6.10;2.78;;;;;;;;;;5026214;28;20503;-68
2021/11/28 06:20:55;;;;;;;5.28;2.42;;;;;;;;;;5023980;28;20021;-68
2021/11/28 06:23:41;;;;;;;6.30;2.78;;;;;;;;;;5025731;28;20407;-67
2021/11/28 06:26:26;;;;;;;6.28;2.00;;;;;;;;;;5027649;28;20048;-65
2021/11/28 06:29:12;;;;;;;7.05;2.28;;;;;;;;;;5027760;28;20368;-66
2021/11/28 06:31:57;;;;;;;5.25;2.10;;;;;;;;;;5027103;28;20109;-65
2021/11/28 06:34:43;;;;;;;4.30;2.22;;;;;;;;;;5022314;28;20026;-64
2021/11/28 06:37:28;;;;;;;5.15;2.28;;;;;;;;;;5024139;28;20029;-66
2021/11/28 06:40:13;;;;;;;4.70;2.05;;;;;;;;;;5030614;28;20072;-65
2021/11/28 06:42:59;;;;;;;4.20;2.70;;;;;;;;;;5030973;28;20032;-65
2021/11/28 06:45:44;;;;;;;3.67;2.08;;;;;;;;;;5031665;28;20041;-69
2021/11/28 06:48:29;;;;;;;7.72;2.28;;;;;;;;;;5030305;28;20100;-64
2021/11/28 06:51:15;;;;;;;5.75;2.40;;;;;;;;;;5031610;28;20411;-63
2021/11/28 06:54:00;;;;;;;7.32;2.35;;;;;;;;;;5030367;28;20036;-65
2021/11/28 06:56:45;;;;;;;6.38;2.65;;;;;;;;;;5020774;28;20038;-64
2021/11/28 06:59:31;;;;;;;8.57;2.20;;;;;;;;;;5022978;28;20045;-65
2021/11/28 07:02:17;;;;;;;5.82;2.45;;;;;;;;;;5016974;28;20029;-66
2021/11/28 07:05:02;;;;;;;32.38;19.45;;;;;;;;;;5029336;28;20033;-61
2021/11/28 07:07:47;;;;;;;12.27;6.30;;;;;;;;;;5031209;28;20033;-64
2021/11/28 07:10:33;;;;;;;6.68;3.17;;;;;;;;;;5016584;28;20083;-64
2021/11/28 07:13:19;;;;;;;3.90;2.35;;;;;;;;;;5001545;28;20103;-64
2021/11/28 07:16:04;;;;;;;5.65;2.72;;;;;;;;;;5024515;28;20473;-65
2021/11/28 07:18:50;;;;;;;6.28;2.70;;;;;;;;;;5020470;28;20465;-64
2021/11/28 07:21:36;;;;;;;7.30;2.90;;;;;;;;;;5020947;28;20036;-64
2021/11/28 07:24:21;;;;;;;5.50;2.30;;;;;;;;;;5032411;28;20037;-64
2021/11/28 07:27:06;;;;;;;5.55;2.83;;;;;;;;;;5030900;28;20029;-62
2021/11/28 07:29:51;;;;;;;5.45;2.60;;;;;;;;;;5029997;28;20083;-63
2021/11/28 07:32:37;;;;;;;6.30;3.05;;;;;;;;;;5030805;28;20112;-62
2021/11/28 07:35:22;;;;;;;6.85;2.50;;;;;;;;;;5029285;28;20534;-62
2021/11/28 07:38:08;;;;;;;5.63;2.50;;;;;;;;;;5030426;28;20022;-61
2021/11/28 07:40:53;;;;;;;8.52;2.75;;;;;;;;;;5028794;28;20083;-69
2021/11/28 07:43:38;;;;;;;5.13;2.65;;;;;;;;;;5030821;28;20029;-64
2021/11/28 07:46:23;;;;;;;3.78;2.35;;;;;;;;;;5028858;28;20052;-66
2021/11/28 07:49:09;;;;;;;7.28;3.03;;;;;;;;;;5024266;28;20098;-63
2021/11/28 07:51:54;;;;;;;3.90;2.30;;;;;;;;;;5038340;28;20129;-62
2021/11/28 07:54:39;;;;;;;6.03;2.75;;;;;;;;;;5010180;28;20377;-62
2021/11/28 07:57:25;;;;;;;5.20;2.70;;;;;;;;;;5027864;28;20188;-63
2021/11/28 08:00:10;;;;;;;5.90;2.80;;;;;;;;;;5028521;28;20037;-70
2021/11/28 08:02:55;;;;;;;6.85;2.92;;;;;;;;;;5010308;28;20026;-62
2021/11/28 08:05:41;;;;;;;5.97;2.35;;;;;;;;;;5024374;28;20466;-62
2021/11/28 08:08:32;;;;;;;7.38;2.72;;;;;;;;;;5029698;28;20041;-63
2021/11/28 08:11:18;;;;;;;8.07;3.20;;;;;;;;;;5015370;28;20018;-63
2021/11/28 08:14:03;;;;;;;8.20;3.15;;;;;;;;;;5023832;28;20117;-62
2021/11/28 08:16:48;;;;;;;6.57;2.70;;;;;;;;;;5028879;28;20029;-69
2021/11/28 08:19:33;;;;;;;6.10;2.83;;;;;;;;;;5013243;28;20133;-71
2021/11/28 08:22:19;;;;;;;7.05;2.80;;;;;;;;;;5028058;28;20174;-71
2021/11/28 08:25:05;;;;;;;5.15;2.97;;;;;;;;;;5029944;28;20324;-68
2021/11/28 08:27:50;;;;;;;6.80;3.00;;;;;;;;;;5028642;28;20124;-73
2021/11/28 08:30:36;;;;;;;8.65;3.33;;;;;;;;;;5029915;28;20205;-69
2021/11/28 08:33:21;;;;;;;7.32;3.17;;;;;;;;;;5015080;28;20507;-72
2021/11/28 08:36:07;;;;;;;9.90;3.35;;;;;;;;;;5043295;28;20033;-66
2021/11/28 08:38:53;;;;;;;8.90;3.72;;;;;;;;;;5028393;28;20042;-70
2021/11/28 08:41:39;;;;;;;7.80;3.47;;;;;;;;;;5028640;28;20128;-69
2021/11/28 08:44:24;;;;;;;7.07;3.10;;;;;;;;;;5029193;28;20044;-67
2021/11/28 08:47:09;;;;;;;4.82;2.72;;;;;;;;;;5042109;28;20017;-70
2021/11/28 08:49:55;;;;;;;9.35;3.30;;;;;;;;;;5025215;28;20056;-67
2021/11/28 08:52:41;;;;;;;7.45;3.20;;;;;;;;;;5028259;28;20040;-69
2021/11/28 08:55:26;;;;;;;5.80;3.10;;;;;;;;;;5029322;28;20542;-66
2021/11/28 08:58:11;;;;;;;5.38;2.90;;;;;;;;;;5019438;28;20053;-63
2021/11/28 09:00:56;;;;;;;6.45;2.90;;;;;;;;;;5027774;28;20365;-61
2021/11/28 09:03:42;;;;;;;8.88;3.55;;;;;;;;;;5014487;28;20452;-61
2021/11/28 09:06:27;;;;;;;8.20;4.00;;;;;;;;;;5028649;28;20030;-60
2021/11/28 09:09:12;;;;;;;11.10;3.78;;;;;;;;;;5027665;28;20168;-60
2021/11/28 09:11:58;;;;;;;9.85;3.25;;;;;;;;;;5029019;28;20029;-70
2021/11/28 09:14:43;;;;;;;6.93;2.97;;;;;;;;;;5027947;28;20025;-61
2021/11/28 09:17:29;;;;;;;6.90;3.08;;;;;;;;;;5022925;28;20285;-61
2021/11/28 09:20:17;;;;;;;8.50;3.72;;;;;;;;;;5008949;28;20033;-64
2021/11/28 09:25:47;;;;;;;9.05;3.75;;;;;;;;;;5028231;28;20087;-61
2021/11/28 09:28:33;;;;;;;8.02;3.85;;;;;;;;;;5029154;28;20033;-65
2021/11/28 09:31:18;;;;;;;43.70;27.63;;;;;;;;;;5027923;28;20033;-66
2021/11/28 09:34:04;;;;;;;10.88;5.68;;;;;;;;;;5027449;28;20303;-64
2021/11/28 09:36:49;;;;;;;9.15;4.90;;;;;;;;;;5028455;28;20041;-65
2021/11/28 09:39:35;;;;;;;9.77;5.03;;;;;;;;;;5012419;28;20463;-63
2021/11/28 09:42:21;;;;;;;8.23;4.25;;;;;;;;;;5021619;28;20076;-64
2021/11/28 09:45:07;;;;;;;8.52;4.00;;;;;;;;;;5015010;28;20380;-65
2021/11/28 09:47:53;;;;;;;7.90;3.65;;;;;;;;;;5027732;28;20397;-63
2021/11/28 09:50:39;;;;;;;6.30;3.35;;;;;;;;;;5026848;28;20055;-67
2021/11/28 09:53:24;;;;;;;8.13;3.38;;;;;;;;;;5028339;28;20025;-64
2021/11/28 09:56:09;;;;;;;8.25;3.65;;;;;;;;;;5040965;28;20241;-62
2021/11/28 09:58:55;;;;;;;5.25;3.00;;;;;;;;;;5027420;28;20038;-63
2021/11/28 10:01:40;;;;;;;5.28;2.72;;;;;;;;;;5027024;28;20468;-65
2021/11/28 10:04:26;;;;;;;6.93;3.05;;;;;;;;;;5028135;28;20033;-64
2021/11/28 10:07:11;;;;;;;4.13;2.50;;;;;;;;;;5027785;28;20056;-69
2021/11/28 10:12:28;;;;;;;39.22;21.58;;;;;;;;;;4982664;28;20042;-63
2021/11/28 10:15:24;;;;;;;9.10;4.47;;;;;;;;;;4956336;28;20058;-63
2021/11/28 10:18:10;;;;;;;9.85;3.47;;;;;;;;;;4964722;28;20038;-64
2021/11/28 10:20:56;;;;;;;7.28;2.83;;;;;;;;;;4948366;28;20114;-62
2021/11/28 10:24:00;;;;;;;5.70;2.50;;;;;;;;;;4956128;28;20088;-63
2021/11/28 10:26:55;;;;;;;7.05;3.30;;;;;;;;;;4955239;28;20058;-63
2021/11/28 10:29:41;;;;;;;6.32;3.13;;;;;;;;;;4956507;28;20046;-62
2021/11/28 10:32:26;;;;;;;6.25;2.75;;;;;;;;;;4945749;28;20068;-64
2021/11/28 10:35:12;;;;;;;6.63;3.38;;;;;;;;;;4937289;28;20180;-63
2021/11/28 10:37:58;;;;;;;4.95;2.95;;;;;;;;;;4948812;28;20038;-63
2021/11/28 10:40:45;;;;;;;8.48;3.05;;;;;;;;;;5018852;28;20033;-63
2021/11/28 10:43:39;;;;;;;8.52;3.25;;;;;;;;;;4954843;28;20077;-68
2021/11/28 10:46:32;;;;;;;9.50;3.42;;;;;;;;;;4942999;28;20077;-60
2021/11/28 10:49:19;;;;;;;9.43;3.17;;;;;;;;;;4956101;28;20066;-62
2021/11/28 10:52:10;;;;;;;4.25;2.50;;;;;;;;;;4954690;28;20031;-60
2021/11/28 10:54:56;;;;;;;6.28;2.97;;;;;;;;;;4942393;28;20054;-61
2021/11/28 10:57:42;;;;;;;4.68;2.40;;;;;;;;;;4954291;28;20497;-61
2021/11/28 11:00:27;;;;;;;5.13;2.55;;;;;;;;;;4955230;28;20039;-63
2021/11/28 11:03:26;;;;;;;7.97;2.67;;;;;;;;;;4949336;28;20106;-67
2021/11/28 11:06:13;;;;;;;7.10;2.55;;;;;;;;;;4956855;28;20533;-69
2021/11/28 11:09:21;;;;;;;7.55;2.70;;;;;;;;;;4955191;28;20054;-67
2021/11/28 11:12:28;;;;;;;7.93;2.65;;;;;;;;;;4955436;28;20474;-67
2021/11/28 11:15:28;;;;;;;3.42;2.22;;;;;;;;;;4955459;28;20035;-66
2021/11/28 11:18:15;;;;;;;5.28;2.17;;;;;;;;;;4942962;28;20059;-65
2021/11/28 11:21:02;;;;;;;5.07;2.42;;;;;;;;;;4955546;28;20034;-69
2021/11/28 11:23:50;;;;;;;5.88;2.30;;;;;;;;;;4940398;28;20394;-62
2021/11/28 11:26:36;;;;;;;4.97;2.58;;;;;;;;;;4955458;28;20039;-64
2021/11/28 11:29:27;;;;;;;5.97;2.75;;;;;;;;;;4953936;28;20027;-64
2021/11/28 11:32:12;;;;;;;75.60;46.63;;;;;;;;;;4955578;28;20482;-66
2021/11/28 11:34:58;;;;;;;33.92;20.73;;;;;;;;;;4954308;28;20027;-67
2021/11/28 11:37:44;;;;;;;4.95;2.35;;;;;;;;;;4961109;28;20035;-66
2021/11/28 11:40:30;;;;;;;5.13;2.42;;;;;;;;;;4969785;28;20054;-63
2021/11/28 11:43:18;;;;;;;4.85;2.50;;;;;;;;;;4955283;28;20039;-65
2021/11/28 11:46:08;;;;;;;4.85;1.80;;;;;;;;;;4954317;28;20088;-63
2021/11/28 11:48:53;;;;;;;5.03;2.50;;;;;;;;;;4954920;28;20455;-63
2021/11/28 11:51:39;;;;;;;4.60;2.00;;;;;;;;;;4954310;28;20482;-64
2021/11/28 11:54:25;;;;;;;3.88;2.20;;;;;;;;;;4954487;28;20053;-63
2021/11/28 11:57:22;;;;;;;6.45;2.40;;;;;;;;;;4948202;28;20039;-66
2021/11/28 12:00:13;;;;;;;5.15;2.53;;;;;;;;;;4941590;28;20031;-62
2021/11/28 12:03:10;;;;;;;5.20;2.45;;;;;;;;;;4954961;28;20664;-64
2021/11/28 12:05:57;;;;;;;4.70;2.22;;;;;;;;;;4942730;28;20493;-62
2021/11/28 12:08:49;;;;;;;5.38;2.10;;;;;;;;;;4955113;28;20377;-62
2021/11/28 12:11:54;;;;;;;7.15;1.90;;;;;;;;;;4953365;28;20076;-61
2021/11/28 12:14:59;;;;;;;3.55;1.75;;;;;;;;;;4954515;28;20488;-64
2021/11/28 12:17:44;;;;;;;2.80;1.38;;;;;;;;;;4954638;28;20381;-61
2021/11/28 12:20:47;;;;;;;2.80;1.50;;;;;;;;;;4935399;28;20057;-65
2021/11/28 12:23:54;;;;;;;3.60;1.70;;;;;;;;;;4939473;28;20045;-61
2021/11/28 12:26:44;;;;;;;1.90;1.10;;;;;;;;;;4955745;28;20049;-63
2021/11/28 12:29:36;;;;;;;2.28;1.42;;;;;;;;;;4954535;28;20038;-63
2021/11/28 12:32:24;;;;;;;5.15;1.60;;;;;;;;;;4947996;28;20031;-63
2021/11/28 12:35:09;;;;;;;2.60;1.30;;;;;;;;;;4934430;28;20104;-62
2021/11/28 12:37:54;;;;;;;6.70;2.83;;;;;;;;;;4950220;28;20033;-64
2021/11/28 12:40:45;;;;;;;8.82;4.32;;;;;;;;;;5035301;28;20068;-67
2021/11/28 12:43:31;;;;;;;6.05;1.70;;;;;;;;;;4958327;28;20524;-66
2021/11/28 12:46:35;;;;;;;3.10;1.17;;;;;;;;;;4954208;28;20030;-66
2021/11/28 12:49:31;;;;;;;4.22;1.52;;;;;;;;;;4954248;28;20080;-64
2021/11/28 12:52:22;;;;;;;1.45;1.00;;;;;;;;;;4966089;28;20056;-64
2021/11/28 12:55:10;;;;;;;2.17;1.25;;;;;;;;;;4954283;28;20058;-64
2021/11/28 12:58:03;;;;;;;3.55;1.77;;;;;;;;;;4954180;28;20035;-61
2021/11/28 13:00:49;;;;;;;4.85;2.00;;;;;;;;;;5035119;28;20132;-63
2021/11/28 13:03:34;;;;;;;5.45;2.53;;;;;;;;;;4980143;28;20026;-62
2021/11/28 13:06:27;;;;;;;5.55;2.40;;;;;;;;;;4934710;29;20066;-62
2021/11/28 13:09:31;;;;;;;5.85;2.17;;;;;;;;;;4944320;28;20128;-64
2021/11/28 13:12:16;;;;;;;2.92;1.70;;;;;;;;;;4934227;29;20429;-65
2021/11/28 13:15:02;;;;;;;2.97;1.52;;;;;;;;;;4953010;28;20405;-72
2021/11/28 13:17:47;;;;;;;3.17;1.60;;;;;;;;;;4952446;28;20061;-68
2021/11/28 13:20:40;;;;;;;4.93;2.00;;;;;;;;;;4954073;28;20031;-68
2021/11/28 13:23:25;;;;;;;3.90;2.00;;;;;;;;;;4952396;28;20026;-67
2021/11/28 13:26:16;;;;;;;5.18;2.33;;;;;;;;;;4953661;28;20225;-67
2021/11/28 13:29:06;;;;;;;5.93;2.75;;;;;;;;;;4947005;28;20601;-61
2021/11/28 13:31:55;;;;;;;;;;;;;;;;;;4935051;29;20156;-68
2021/11/28 13:34:40;;;;;;;6.03;2.97;;;;;;;;;;4940315;28;19937;-68
2021/11/28 13:37:27;;;;;;;5.90;2.78;;;;;;;;;;4934264;28;20035;-67
2021/11/28 13:40:12;;;;;;;5.70;3.38;;;;;;;;;;4947494;28;20096;-68
2021/11/28 13:42:57;;;;;;;7.70;3.40;;;;;;;;;;4953423;28;20416;-68
2021/11/28 13:45:53;;;;;;;9.60;4.80;;;;;;;;;;4951959;28;20117;-68
2021/11/28 13:48:42;;;;;;;9.00;4.55;;;;;;;;;;4953386;28;20035;-64
2021/11/28 13:51:35;;;;;;;13.68;7.43;;;;;;;;;;4953141;28;20493;-69
2021/11/28 13:54:26;;;;;;;12.63;6.97;;;;;;;;;;4965393;28;20612;-67
2021/11/28 13:57:14;;;;;;;9.35;5.13;;;;;;;;;;4953219;28;20115;-70
2021/11/28 14:00:05;;;;;;;8.38;5.10;;;;;;;;;;4953205;28;20035;-68
2021/11/28 14:02:50;;;;;;;10.88;4.75;;;;;;;;;;4953462;28;20163;-68
2021/11/28 14:05:35;;;;;;;11.30;5.03;;;;;;;;;;4959772;28;20042;-68
2021/11/28 14:08:20;;;;;;;10.18;5.70;;;;;;;;;;4953350;28;20027;-65
2021/11/28 14:11:13;;;;;;;9.13;5.47;;;;;;;;;;4951246;28;20046;-66
2021/11/28 14:13:58;;;;;;;12.98;5.50;;;;;;;;;;4966336;28;20042;-65
2021/11/28 14:16:52;;;;;;;11.18;5.38;;;;;;;;;;4965204;28;20121;-63
2021/11/28 14:19:39;;;;;;;9.35;5.20;;;;;;;;;;4951082;28;20039;-62
2021/11/28 14:22:43;;;;;;;12.15;5.88;;;;;;;;;;4944265;28;20371;-63
2021/11/28 14:25:36;;;;;;;8.93;5.32;;;;;;;;;;4941134;28;20122;-67
2021/11/28 14:28:22;;;;;;;10.07;5.38;;;;;;;;;;4952138;28;20599;-61
2021/11/28 14:31:11;;;;;;;11.85;5.93;;;;;;;;;;4951299;28;20027;-61
2021/11/28 14:33:56;;;;;;;8.50;5.72;;;;;;;;;;4952822;28;20359;-60
2021/11/28 14:36:41;;;;;;;10.63;5.40;;;;;;;;;;4951411;28;20050;-62
2021/11/28 14:39:38;;;;;;;10.25;5.53;;;;;;;;;;5000256;28;20058;-61
2021/11/28 14:42:24;;;;;;;10.63;4.97;;;;;;;;;;4951745;28;20410;-60
2021/11/28 14:45:16;;;;;;;12.02;5.68;;;;;;;;;;4965909;28;20550;-64
2021/11/28 14:48:31;;;;;;;13.00;5.95;;;;;;;;;;4951968;28;20089;-66
2021/11/28 14:51:30;;;;;;;11.65;5.55;;;;;;;;;;4943564;28;20446;-67
2021/11/28 14:54:22;;;;;;;9.48;5.15;;;;;;;;;;4952697;28;20030;-68
2021/11/28 14:57:08;;;;;;;13.25;6.10;;;;;;;;;;4964695;28;20055;-67
2021/11/28 14:59:54;;;;;;;10.18;5.53;;;;;;;;;;4947852;28;20043;-67
2021/11/28 15:02:40;;;;;;;9.98;5.72;;;;;;;;;;4943804;28;20023;-67
2021/11/28 15:05:27;;;;;;;11.85;5.63;;;;;;;;;;4955429;28;20038;-61
2021/11/28 15:08:13;;;;;;;15.75;9.30;;;;;;;;;;4954358;28;20136;-62
2021/11/28 15:10:59;;;;;;;22.45;12.60;;;;;;;;;;4954970;28;20049;-60
2021/11/28 15:13:44;;;;;;;13.60;7.35;;;;;;;;;;4954659;28;20074;-61
2021/11/28 15:16:33;;;;;;;14.02;6.93;;;;;;;;;;4956093;28;20022;-61
2021/11/28 15:19:20;;;;;;;13.20;6.95;;;;;;;;;;4967814;28;20482;-60
2021/11/28 15:22:06;;;;;;;9.68;6.65;;;;;;;;;;4946633;28;20043;-66
2021/11/28 15:24:51;;;;;;;12.85;8.80;;;;;;;;;;4957881;28;20087;-62
2021/11/28 15:27:37;;;;;;;14.57;7.72;;;;;;;;;;4955483;28;20035;-60
2021/11/28 15:30:23;;;;;;;12.35;6.95;;;;;;;;;;4955045;28;20490;-61
2021/11/28 15:33:08;;;;;;;12.30;7.28;;;;;;;;;;4967256;28;20037;-61
2021/11/28 15:35:54;;;;;;;12.38;6.10;;;;;;;;;;4955180;28;20034;-61
2021/11/28 15:38:39;;;;;;;11.02;6.00;;;;;;;;;;4983215;28;20461;-59
2021/11/28 15:41:24;;;;;;;12.13;6.50;;;;;;;;;;4955123;28;20023;-64
2021/11/28 15:44:09;;;;;;;10.32;6.97;;;;;;;;;;4953935;28;20034;-63
2021/11/28 15:46:55;;;;;;;9.90;6.03;;;;;;;;;;4954692;28;20023;-61
2021/11/28 15:49:40;;;;;;;11.18;6.50;;;;;;;;;;4953829;28;20112;-61
2021/11/28 15:52:25;;;;;;;31.52;20.80;;;;;;;;;;4954614;28;20373;-62
2021/11/28 15:55:11;;;;;;;18.50;12.38;;;;;;;;;;4953932;28;20034;-65
2021/11/28 15:57:56;;;;;;;11.80;6.78;;;;;;;;;;4968425;28;20031;-69
2021/11/28 16:00:42;;;;;;;14.00;6.50;;;;;;;;;;4953682;28;20039;-63
2021/11/28 16:03:28;;;;;;;13.35;7.05;;;;;;;;;;4954602;28;20542;-64
2021/11/28 16:06:13;;;;;;;10.48;6.22;;;;;;;;;;4946682;28;20039;-62
2021/11/28 16:08:59;;;;;;;9.63;7.22;;;;;;;;;;4935582;28;20019;-62
2021/11/28 16:11:44;;;;;;;10.45;6.28;;;;;;;;;;4954209;28;20104;-63
2021/11/28 16:14:30;;;;;;;10.75;6.25;;;;;;;;;;4942824;28;20035;-64
2021/11/28 16:17:15;;;;;;;15.02;6.90;;;;;;;;;;4953967;28;20662;-62
2021/11/28 16:20:01;;;;;;;12.40;6.25;;;;;;;;;;4949484;28;20051;-62
2021/11/28 16:22:48;;;;;;;11.52;6.60;;;;;;;;;;4954440;28;20085;-66
2021/11/28 16:25:33;;;;;;;10.00;5.68;;;;;;;;;;4945906;28;20041;-64
2021/11/28 16:28:18;;;;;;;12.55;6.35;;;;;;;;;;4954234;28;20039;-68
2021/11/28 16:31:04;;;;;;;12.95;8.20;;;;;;;;;;4947993;28;20126;-64
2021/11/28 16:33:49;;;;;;;11.75;7.32;;;;;;;;;;4954481;28;20054;-62
2021/11/28 16:36:34;;;;;;;11.57;6.75;;;;;;;;;;4952702;28;20022;-62
2021/11/28 16:39:20;;;;;;;11.77;6.80;;;;;;;;;;4940690;28;20084;-60
2021/11/28 16:42:05;;;;;;;11.77;8.07;;;;;;;;;;4952679;28;20605;-63
2021/11/28 16:44:51;;;;;;;13.02;8.18;;;;;;;;;;4941121;28;20126;-63
2021/11/28 16:47:36;;;;;;;25.25;14.98;;;;;;;;;;4935170;28;20033;-63